createdAt,value
2023-05-09T00:01:09.405Z,94.98
2023-05-09T00:03:42.545Z,95.19
2023-05-09T00:06:13.605Z,95.25
2023-05-09T00:08:43.318Z,95.22
2023-05-09T00:11:13.140Z,95.11
2023-05-09T00:13:44.229Z,95.15
2023-05-09T00:16:14.011Z,94.98
2023-05-09T00:18:47.288Z,94.85
2023-05-09T00:21:16.969Z,94.93
2023-05-09T00:23:46.733Z,95.11
2023-05-09T00:26:16.561Z,95.05
2023-05-09T00:28:48.260Z,94.93
2023-05-09T00:31:18.065Z,95.32
2023-05-09T00:33:50.568Z,95.31
2023-05-09T00:36:20.247Z,95.34
2023-05-09T00:38:50.164Z,95.50
2023-05-09T00:41:19.819Z,95.63
2023-05-09T00:43:49.520Z,95.70
2023-05-09T00:46:19.685Z,95.82
2023-05-09T00:48:52.618Z,95.95
2023-05-09T00:51:22.361Z,95.83
2023-05-09T00:53:52.428Z,96.23
2023-05-09T00:56:22.140Z,96.34
2023-05-09T00:58:52.264Z,96.30
2023-05-09T01:01:22.631Z,96.29
2023-05-09T01:03:55.754Z,96.18
2023-05-09T01:06:28.975Z,96.36
2023-05-09T01:09:02.508Z,96.37
2023-05-09T01:11:35.764Z,96.33
2023-05-09T01:14:12.657Z,96.33
2023-05-09T01:16:46.464Z,96.17
2023-05-09T01:19:35.445Z,96.36
2023-05-09T01:22:07.316Z,96.32
2023-05-09T01:24:48.162Z,96.52
2023-05-09T01:27:44.703Z,96.30
2023-05-09T01:30:18.243Z,96.39
2023-05-09T01:32:50.224Z,96.41
2023-05-09T01:35:20.320Z,96.22
2023-05-09T01:37:52.394Z,96.26
2023-05-09T01:40:23.656Z,96.31
2023-05-09T01:42:55.952Z,96.31
2023-05-09T01:45:29.152Z,96.65
2023-05-09T01:47:59.665Z,96.50
2023-05-09T01:50:30.190Z,96.60
2023-05-09T01:53:00.927Z,96.45
2023-05-09T01:55:32.609Z,96.69
2023-05-09T01:58:02.927Z,96.28
2023-05-09T02:00:35.411Z,96.46
2023-05-09T02:03:05.438Z,96.31
2023-05-09T02:05:35.876Z,96.22
2023-05-09T02:08:05.806Z,96.18
2023-05-09T02:10:36.275Z,95.95
2023-05-09T02:13:07.846Z,95.83
2023-05-09T02:15:40.457Z,95.71
2023-05-09T02:18:10.237Z,95.38
2023-05-09T02:20:39.988Z,95.63
2023-05-09T02:23:09.764Z,95.36
2023-05-09T02:25:39.692Z,95.56
2023-05-09T02:28:10.381Z,95.14
2023-05-09T02:30:45.926Z,95.21
2023-05-09T02:33:16.806Z,95.03
2023-05-09T02:35:48.646Z,94.91
2023-05-09T02:38:19.412Z,94.84
2023-05-09T02:40:52.261Z,94.73
2023-05-09T02:43:22.401Z,95.00
2023-05-09T02:45:54.814Z,94.91
2023-05-09T02:48:24.514Z,94.79
2023-05-09T02:50:54.205Z,94.82
2023-05-09T02:53:24.128Z,94.57
2023-05-09T02:55:54.022Z,94.95
2023-05-09T02:58:23.925Z,94.90
2023-05-09T03:00:56.312Z,94.59
2023-05-09T03:03:26.269Z,94.72
2023-05-09T03:05:56.230Z,94.58
2023-05-09T03:08:25.979Z,94.19
2023-05-09T03:10:55.729Z,94.28
2023-05-09T03:13:26.057Z,94.16
2023-05-09T03:15:58.579Z,94.25
2023-05-09T03:18:28.332Z,94.09
2023-05-09T03:20:58.375Z,94.16
2023-05-09T03:23:28.884Z,94.33
2023-05-09T03:25:58.627Z,94.36
2023-05-09T03:28:28.481Z,94.30
2023-05-09T03:31:04.668Z,93.88
2023-05-09T03:33:34.713Z,94.05
2023-05-09T03:36:04.842Z,93.99
2023-05-09T03:38:34.585Z,93.81
2023-05-09T03:41:04.334Z,94.05
2023-05-09T03:43:34.063Z,93.83
2023-05-09T03:46:06.854Z,93.73
2023-05-09T03:48:37.209Z,93.62
2023-05-09T03:51:07.574Z,93.82
2023-05-09T03:53:40.727Z,93.91
2023-05-09T03:56:11.667Z,93.63
2023-05-09T03:58:48.224Z,93.79
2023-05-09T04:01:21.086Z,93.43
2023-05-09T04:03:52.325Z,93.61
2023-05-09T04:06:23.301Z,93.71
2023-05-09T04:08:53.053Z,93.56
2023-05-09T04:11:22.804Z,93.50
2023-05-09T04:13:52.934Z,93.55
2023-05-09T04:16:31.189Z,93.79
2023-05-09T04:19:01.719Z,93.55
2023-05-09T04:21:32.020Z,93.57
2023-05-09T04:24:03.894Z,93.44
2023-05-09T04:26:40.084Z,93.57
2023-05-09T04:29:13.619Z,93.83
2023-05-09T04:31:46.882Z,93.54
2023-05-09T04:34:17.217Z,93.79
2023-05-09T04:36:46.913Z,93.76
2023-05-09T04:39:16.627Z,93.66
2023-05-09T04:41:55.477Z,93.83
2023-05-09T04:44:25.502Z,94.22
2023-05-09T04:46:58.223Z,93.93
2023-05-09T04:49:28.125Z,94.36
2023-05-09T04:51:57.931Z,94.29
2023-05-09T04:54:28.659Z,94.22
2023-05-09T04:57:09.915Z,94.18
2023-05-09T04:59:48.016Z,94.27
2023-05-09T05:02:21.400Z,94.57
2023-05-09T05:04:56.009Z,94.62
2023-05-09T05:07:30.406Z,94.64
2023-05-09T05:10:00.353Z,94.39
2023-05-09T05:12:30.281Z,94.72
2023-05-09T05:15:00.148Z,94.55
2023-05-09T05:17:32.462Z,94.33
2023-05-09T05:20:06.713Z,94.14
2023-05-09T05:22:36.734Z,93.88
2023-05-09T05:25:06.659Z,94.00
2023-05-09T05:27:37.937Z,93.34
2023-05-09T05:30:09.329Z,93.37
2023-05-09T05:32:41.935Z,93.21
2023-05-09T05:35:12.904Z,92.98
2023-05-09T05:37:44.412Z,93.16
2023-05-09T05:40:15.215Z,92.44
2023-05-09T05:42:47.859Z,92.24
2023-05-09T05:45:17.711Z,92.07
2023-05-09T05:47:54.587Z,91.92
2023-05-09T05:50:25.911Z,91.49
2023-05-09T05:52:56.848Z,91.12
2023-05-09T05:55:26.516Z,91.55
2023-05-09T05:57:56.382Z,91.18
2023-05-09T06:00:26.119Z,90.92
2023-05-09T06:03:05.744Z,90.68
2023-05-09T06:05:46.171Z,90.19
2023-05-09T06:08:16.448Z,89.92
2023-05-09T06:10:46.285Z,89.42
2023-05-09T06:13:16.107Z,89.00
2023-05-09T06:15:50.353Z,88.95
2023-05-09T06:18:22.691Z,87.68
2023-05-09T06:20:52.390Z,87.36
2023-05-09T06:23:22.438Z,86.54
2023-05-09T06:25:52.771Z,86.24
2023-05-09T06:28:22.626Z,85.50
2023-05-09T06:30:52.313Z,85.49
2023-05-09T06:33:24.570Z,85.28
2023-05-09T06:35:54.219Z,84.22
2023-05-09T06:38:23.875Z,82.99
2023-05-09T06:40:53.700Z,80.68
2023-05-09T06:43:23.426Z,79.13
2023-05-09T06:45:53.287Z,77.03
2023-05-09T06:48:26.979Z,75.42
2023-05-09T06:50:56.932Z,74.66
2023-05-09T06:53:26.606Z,74.00
2023-05-09T06:55:56.313Z,73.14
2023-05-09T06:58:27.008Z,72.58
2023-05-09T07:00:56.807Z,72.32
2023-05-09T07:03:29.016Z,71.23
2023-05-09T07:06:00.044Z,70.33
2023-05-09T07:08:29.769Z,70.08
2023-05-09T07:10:59.708Z,69.81
2023-05-09T07:13:29.434Z,69.52
2023-05-09T07:15:59.093Z,69.93
2023-05-09T07:18:31.413Z,69.23
2023-05-09T07:21:01.249Z,68.18
2023-05-09T07:23:31.034Z,68.66
2023-05-09T07:26:01.572Z,67.84
2023-05-09T07:28:31.577Z,68.09
2023-05-09T07:31:01.309Z,68.67
2023-05-09T07:33:33.839Z,69.17
2023-05-09T07:36:04.172Z,69.27
2023-05-09T07:38:33.998Z,69.02
2023-05-09T07:41:03.653Z,67.69
2023-05-09T07:43:33.574Z,67.13
2023-05-09T07:46:03.460Z,65.17
2023-05-09T07:48:35.912Z,63.42
2023-05-09T07:51:05.619Z,62.94
2023-05-09T07:53:35.492Z,61.27
2023-05-09T07:56:06.891Z,60.43
2023-05-09T07:58:36.529Z,60.11
2023-05-09T08:01:06.273Z,60.39
2023-05-09T08:03:38.623Z,59.84
2023-05-09T08:06:10.028Z,59.69
2023-05-09T08:08:39.685Z,59.50
2023-05-09T08:11:09.403Z,58.08
2023-05-09T08:13:39.153Z,57.64
2023-05-09T08:16:09.222Z,57.55
2023-05-09T08:18:41.557Z,58.20
2023-05-09T08:21:11.304Z,59.08
2023-05-09T08:23:41.428Z,59.77
2023-05-09T08:26:11.119Z,59.79
2023-05-09T08:28:40.788Z,60.78
2023-05-09T08:31:10.536Z,59.74
2023-05-09T08:33:42.861Z,59.14
2023-05-09T08:36:12.634Z,57.59
2023-05-09T08:38:42.365Z,56.65
2023-05-09T08:41:12.089Z,56.34
2023-05-09T08:43:43.451Z,54.80
2023-05-09T08:46:13.843Z,54.00
2023-05-09T08:48:46.623Z,52.63
2023-05-09T08:51:18.041Z,51.50
2023-05-09T08:53:47.774Z,50.66
2023-05-09T08:56:17.785Z,50.35
2023-05-09T08:58:48.265Z,50.14
2023-05-09T09:01:19.630Z,48.33
2023-05-09T09:03:52.418Z,46.65
2023-05-09T09:06:22.717Z,45.96
2023-05-09T09:08:52.710Z,44.07
2023-05-09T09:11:22.870Z,43.80
2023-05-09T09:13:54.753Z,44.15
2023-05-09T09:16:25.512Z,43.49
2023-05-09T09:18:59.111Z,41.95
2023-05-09T09:21:29.231Z,40.72
2023-05-09T09:23:59.090Z,39.92
2023-05-09T09:26:31.840Z,38.95
2023-05-09T09:29:01.692Z,38.41
2023-05-09T09:31:35.987Z,38.28
2023-05-09T09:34:08.282Z,38.28
2023-05-09T09:36:38.050Z,38.23
2023-05-09T09:39:09.315Z,37.17
2023-05-09T09:41:40.217Z,36.89
2023-05-09T09:44:10.882Z,36.25
2023-05-09T09:46:48.424Z,36.15
2023-05-09T09:49:21.664Z,36.52
2023-05-09T09:51:55.342Z,37.85
2023-05-09T09:54:25.579Z,39.89
2023-05-09T09:56:56.770Z,40.50
2023-05-09T09:59:27.923Z,40.92
2023-05-09T10:01:58.759Z,40.64
2023-05-09T10:04:33.111Z,40.44
2023-05-09T10:07:03.685Z,39.91
2023-05-09T10:09:33.741Z,40.42
2023-05-09T10:12:06.548Z,40.83
2023-05-09T10:14:37.733Z,41.52
2023-05-09T10:17:08.225Z,41.46
2023-05-09T10:19:41.306Z,41.64
2023-05-09T10:22:13.485Z,41.85
2023-05-09T10:24:45.143Z,42.15
2023-05-09T10:27:15.835Z,42.50
2023-05-09T10:29:48.711Z,42.25
2023-05-09T10:32:21.304Z,42.23
2023-05-09T10:34:56.315Z,42.23
2023-05-09T10:37:26.234Z,42.90
2023-05-09T10:39:56.712Z,42.21
2023-05-09T10:42:28.534Z,41.85
2023-05-09T10:44:58.535Z,42.16
2023-05-09T10:47:29.546Z,42.23
2023-05-09T10:50:02.301Z,42.21
2023-05-09T10:52:35.033Z,42.78
2023-05-09T10:55:06.902Z,42.59
2023-05-09T10:57:37.649Z,42.93
2023-05-09T11:00:08.876Z,42.92
2023-05-09T11:02:39.292Z,42.58
2023-05-09T11:05:29.239Z,42.49
2023-05-09T11:08:26.505Z,43.01
2023-05-09T11:10:56.953Z,43.39
2023-05-09T11:13:27.757Z,43.05
2023-05-09T11:16:14.024Z,42.46
2023-05-09T11:18:54.805Z,42.74
2023-05-09T11:21:27.722Z,42.52
2023-05-09T11:23:57.381Z,42.73
2023-05-09T11:26:32.341Z,42.55
2023-05-09T11:29:03.014Z,43.65
2023-05-09T11:31:33.501Z,44.09
2023-05-09T11:34:06.485Z,44.47
2023-05-09T11:36:39.196Z,44.45
2023-05-09T11:39:10.279Z,44.55
2023-05-09T11:41:42.677Z,44.69
2023-05-09T11:44:19.444Z,43.90
2023-05-09T11:46:49.884Z,43.86
2023-05-09T11:49:20.629Z,44.51
2023-05-09T11:51:53.072Z,44.71
2023-05-09T11:54:22.733Z,44.61
2023-05-09T11:56:52.441Z,43.96
2023-05-09T11:59:22.511Z,43.81
2023-05-09T12:01:52.226Z,44.26
2023-05-09T12:04:22.109Z,44.33
2023-05-09T12:06:54.984Z,44.71
2023-05-09T12:09:24.970Z,44.88
2023-05-09T12:11:54.934Z,44.96
2023-05-09T12:14:31.274Z,44.58
2023-05-09T12:17:01.196Z,44.83
2023-05-09T12:19:31.443Z,44.73
2023-05-09T12:22:06.950Z,44.91
2023-05-09T12:24:38.804Z,44.83
2023-05-09T12:27:08.488Z,44.85
2023-05-09T12:29:40.442Z,44.62
2023-05-09T12:32:10.138Z,44.90
2023-05-09T12:34:39.863Z,45.08
2023-05-09T12:37:17.450Z,44.98
2023-05-09T12:39:48.427Z,44.88
2023-05-09T12:42:18.538Z,44.98
2023-05-09T12:44:52.448Z,45.47
2023-05-09T12:47:22.134Z,45.12
2023-05-09T12:49:52.312Z,45.23
2023-05-09T12:52:24.532Z,45.14
2023-05-09T12:54:55.631Z,44.98
2023-05-09T12:57:29.504Z,45.15
2023-05-09T13:00:01.733Z,45.18
2023-05-09T13:02:36.689Z,44.86
2023-05-09T13:05:11.160Z,45.33
2023-05-09T13:07:47.922Z,45.67
2023-05-09T13:10:19.397Z,45.79
2023-05-09T13:12:49.414Z,46.17
2023-05-09T13:15:20.192Z,45.94
2023-05-09T13:17:50.349Z,46.12
2023-05-09T13:20:20.456Z,46.30
2023-05-09T13:22:52.767Z,46.83
2023-05-09T13:25:22.904Z,46.54
2023-05-09T13:27:52.594Z,46.26
2023-05-09T13:30:22.308Z,46.76
2023-05-09T13:32:52.101Z,46.54
2023-05-09T13:35:21.860Z,46.68
2023-05-09T13:37:54.275Z,47.43
2023-05-09T13:40:23.956Z,47.17
2023-05-09T13:42:53.673Z,46.86
2023-05-09T13:45:30.801Z,47.03
2023-05-09T13:48:00.754Z,47.11
2023-05-09T13:50:30.577Z,47.68
2023-05-09T13:53:03.484Z,47.41
2023-05-09T13:55:34.650Z,48.34
2023-05-09T13:58:04.380Z,48.09
2023-05-09T14:00:34.491Z,48.07
2023-05-09T14:03:04.801Z,48.86
2023-05-09T14:05:34.672Z,48.88
2023-05-09T14:08:08.015Z,49.09
2023-05-09T14:10:37.810Z,49.45
2023-05-09T14:13:08.590Z,50.23
2023-05-09T14:15:38.475Z,50.64
2023-05-09T14:18:08.363Z,51.66
2023-05-09T14:20:38.162Z,53.04
2023-05-09T14:23:10.595Z,53.97
2023-05-09T14:25:40.351Z,54.79
2023-05-09T14:28:10.119Z,55.97
2023-05-09T14:30:39.791Z,56.91
2023-05-09T14:33:09.858Z,58.03
2023-05-09T14:35:41.507Z,59.01
2023-05-09T14:38:14.097Z,60.65
2023-05-09T14:40:43.809Z,61.58
2023-05-09T14:43:13.592Z,62.38
2023-05-09T14:45:43.258Z,63.36
2023-05-09T14:48:15.880Z,64.58
2023-05-09T14:50:45.754Z,65.39
2023-05-09T14:53:18.082Z,66.46
2023-05-09T14:55:47.761Z,66.82
2023-05-09T14:58:18.117Z,67.80
2023-05-09T15:00:48.020Z,68.66
2023-05-09T15:03:18.075Z,69.46
2023-05-09T15:05:47.780Z,70.04
2023-05-09T15:08:20.090Z,70.80
2023-05-09T15:10:50.977Z,70.88
2023-05-09T15:13:21.025Z,71.96
2023-05-09T15:15:50.871Z,72.07
2023-05-09T15:18:21.729Z,72.65
2023-05-09T15:20:52.348Z,73.00
2023-05-09T15:23:25.024Z,73.75
2023-05-09T15:25:54.720Z,73.70
2023-05-09T15:28:24.420Z,73.79
2023-05-09T15:30:54.189Z,73.56
2023-05-09T15:33:23.900Z,73.55
2023-05-09T15:35:55.135Z,73.81
2023-05-09T15:38:27.504Z,73.54
2023-05-09T15:40:57.243Z,73.93
2023-05-09T15:43:26.932Z,73.94
2023-05-09T15:45:56.739Z,73.91
2023-05-09T15:48:27.333Z,73.83
2023-05-09T15:50:57.092Z,74.34
2023-05-09T15:53:29.582Z,74.71
2023-05-09T15:55:59.724Z,74.84
2023-05-09T15:58:29.832Z,74.95
2023-05-09T16:00:59.665Z,75.33
2023-05-09T16:03:29.465Z,75.59
2023-05-09T16:05:59.434Z,76.09
2023-05-09T16:08:31.779Z,76.48
2023-05-09T16:11:02.106Z,76.25
2023-05-09T16:13:33.640Z,76.45
2023-05-09T16:16:05.155Z,76.78
2023-05-09T16:18:34.911Z,76.62
2023-05-09T16:21:04.637Z,76.65
2023-05-09T16:23:37.010Z,76.91
2023-05-09T16:26:06.829Z,77.26
2023-05-09T16:28:36.612Z,77.46
2023-05-09T16:31:08.679Z,77.92
2023-05-09T16:33:38.557Z,77.72
2023-05-09T16:36:09.164Z,78.07
2023-05-09T16:38:41.560Z,78.56
2023-05-09T16:41:11.244Z,78.60
2023-05-09T16:43:40.968Z,78.39
2023-05-09T16:46:10.808Z,78.71
2023-05-09T16:48:41.021Z,79.12
2023-05-09T16:51:10.774Z,79.20
2023-05-09T16:53:43.563Z,78.86
2023-05-09T16:56:14.001Z,79.17
2023-05-09T16:58:44.901Z,79.53
2023-05-09T17:01:14.754Z,79.60
2023-05-09T17:03:44.479Z,79.58
2023-05-09T17:06:14.226Z,79.64
2023-05-09T17:08:46.559Z,79.91
2023-05-09T17:11:16.482Z,79.75
2023-05-09T17:13:46.131Z,79.96
2023-05-09T17:16:15.864Z,80.20
2023-05-09T17:18:47.453Z,80.32
2023-05-09T17:21:17.402Z,80.57
2023-05-09T17:23:49.658Z,80.77
2023-05-09T17:26:19.334Z,80.76
2023-05-09T17:28:49.766Z,80.93
2023-05-09T17:31:19.689Z,81.09
2023-05-09T17:33:49.610Z,81.18
2023-05-09T17:36:19.282Z,81.25
2023-05-09T17:38:51.661Z,81.83
2023-05-09T17:41:22.105Z,81.92
2023-05-09T17:43:52.630Z,82.10
2023-05-09T17:46:24.878Z,82.14
2023-05-09T17:48:54.793Z,82.77
2023-05-09T17:51:24.822Z,82.90
2023-05-09T17:53:57.099Z,83.48
2023-05-09T17:56:27.102Z,83.65
2023-05-09T17:58:57.238Z,83.80
2023-05-09T18:01:27.009Z,84.15
2023-05-09T18:03:57.276Z,84.13
2023-05-09T18:06:27.127Z,84.09
2023-05-09T18:08:59.392Z,84.30
2023-05-09T18:11:29.189Z,84.07
2023-05-09T18:13:58.936Z,84.14
2023-05-09T18:16:28.733Z,84.47
2023-05-09T18:18:59.381Z,84.63
2023-05-09T18:21:29.423Z,84.70
2023-05-09T18:24:01.677Z,84.50
2023-05-09T18:26:31.381Z,84.86
2023-05-09T18:29:01.053Z,84.88
2023-05-09T18:31:31.546Z,84.73
2023-05-09T18:34:01.392Z,84.80
2023-05-09T18:36:31.133Z,84.82
2023-05-09T18:39:03.489Z,85.11
2023-05-09T18:41:34.344Z,85.03
2023-05-09T18:44:04.220Z,85.25
2023-05-09T18:46:34.052Z,85.16
2023-05-09T18:49:04.204Z,85.04
2023-05-09T18:51:34.110Z,85.22
2023-05-09T18:54:07.299Z,85.19
2023-05-09T18:56:39.503Z,85.38
2023-05-09T18:59:12.115Z,85.69
2023-05-09T19:01:42.841Z,85.43
2023-05-09T19:04:13.269Z,85.71
2023-05-09T19:06:43.073Z,85.56
2023-05-09T19:09:15.390Z,85.83
2023-05-09T19:11:45.262Z,85.60
2023-05-09T19:14:15.183Z,86.00
2023-05-09T19:16:45.175Z,85.95
2023-05-09T19:19:14.895Z,86.15
2023-05-09T19:21:44.591Z,85.99
2023-05-09T19:24:16.860Z,86.28
2023-05-09T19:26:46.599Z,86.17
2023-05-09T19:29:16.321Z,86.51
2023-05-09T19:31:46.038Z,86.40
2023-05-09T19:34:15.684Z,86.30
2023-05-09T19:36:45.356Z,86.76
2023-05-09T19:39:17.675Z,86.66
2023-05-09T19:41:47.936Z,86.73
2023-05-09T19:44:17.769Z,86.87
2023-05-09T19:46:47.461Z,87.01
2023-05-09T19:49:18.029Z,87.05
2023-05-09T19:51:47.892Z,87.04
2023-05-09T19:54:20.181Z,86.94
2023-05-09T19:56:49.851Z,86.85
2023-05-09T19:59:19.589Z,87.01
2023-05-09T20:01:49.304Z,87.06
2023-05-09T20:04:21.869Z,87.39
2023-05-09T20:06:51.604Z,87.43
2023-05-09T20:09:23.870Z,87.67
2023-05-09T20:11:53.754Z,87.69
2023-05-09T20:14:23.454Z,87.90
2023-05-09T20:16:53.137Z,88.13
2023-05-09T20:19:22.811Z,88.26
2023-05-09T20:21:52.558Z,88.10
2023-05-09T20:24:24.944Z,88.37
2023-05-09T20:26:55.152Z,88.25
2023-05-09T20:29:26.192Z,88.46
2023-05-09T20:31:55.917Z,88.52
2023-05-09T20:34:27.328Z,88.26
2023-05-09T20:36:57.018Z,88.72
2023-05-09T20:39:29.442Z,88.54
2023-05-09T20:42:02.599Z,88.87
2023-05-09T20:44:32.345Z,88.74
2023-05-09T20:47:02.040Z,88.70
2023-05-09T20:49:31.714Z,88.56
2023-05-09T20:52:01.457Z,88.77
2023-05-09T20:54:33.813Z,88.69
2023-05-09T20:57:03.456Z,88.74
2023-05-09T20:59:33.169Z,88.89
2023-05-09T21:02:02.923Z,89.09
2023-05-09T21:04:32.659Z,88.92
2023-05-09T21:07:02.442Z,88.91
2023-05-09T21:09:34.681Z,89.16
2023-05-09T21:12:04.610Z,89.00
2023-05-09T21:14:34.385Z,89.08
2023-05-09T21:17:04.137Z,89.24
2023-05-09T21:19:34.312Z,89.24
2023-05-09T21:22:04.017Z,89.04
2023-05-09T21:24:36.319Z,89.57
2023-05-09T21:27:06.329Z,89.41
2023-05-09T21:29:35.984Z,89.42
2023-05-09T21:32:05.753Z,89.46
2023-05-09T21:34:35.589Z,89.64
2023-05-09T21:37:05.268Z,89.64
2023-05-09T21:39:37.516Z,89.57
2023-05-09T21:42:07.275Z,89.59
2023-05-09T21:44:36.947Z,89.82
2023-05-09T21:47:06.866Z,89.73
2023-05-09T21:49:36.520Z,89.77
2023-05-09T21:52:06.967Z,89.78
2023-05-09T21:54:39.234Z,90.18
2023-05-09T21:57:08.911Z,90.06
2023-05-09T21:59:39.646Z,90.09
2023-05-09T22:02:09.321Z,90.04
2023-05-09T22:04:40.310Z,90.26
2023-05-09T22:07:09.954Z,90.13
2023-05-09T22:09:42.335Z,90.32
2023-05-09T22:12:11.993Z,90.19
2023-05-09T22:14:52.707Z,90.38
2023-05-09T22:17:25.299Z,90.34
2023-05-09T22:19:55.008Z,90.54
2023-05-09T22:22:24.672Z,90.62
2023-05-09T22:24:56.945Z,90.77
2023-05-09T22:27:26.757Z,90.91
2023-05-09T22:29:56.411Z,90.76
2023-05-09T22:32:26.084Z,90.93
2023-05-09T22:34:56.967Z,90.89
2023-05-09T22:37:26.917Z,91.02
2023-05-09T22:40:01.143Z,90.90
2023-05-09T22:42:31.076Z,91.01
2023-05-09T22:45:00.730Z,90.89
2023-05-09T22:47:30.491Z,91.00
2023-05-09T22:50:00.202Z,90.99
2023-05-09T22:52:29.957Z,91.04
2023-05-09T22:55:02.193Z,91.13
2023-05-09T22:57:31.905Z,91.34
2023-05-09T23:00:01.573Z,91.05
2023-05-09T23:02:31.330Z,91.01
2023-05-09T23:05:01.431Z,91.23
2023-05-09T23:07:31.067Z,91.39
2023-05-09T23:10:03.603Z,91.60
2023-05-09T23:12:33.328Z,91.61
2023-05-09T23:15:02.988Z,91.55
2023-05-09T23:17:33.012Z,91.62
2023-05-09T23:20:04.115Z,91.61
2023-05-09T23:22:33.820Z,91.88
2023-05-09T23:25:06.662Z,91.95
2023-05-09T23:27:36.686Z,91.97
2023-05-09T23:30:06.674Z,91.95
2023-05-09T23:32:36.682Z,92.17
2023-05-09T23:35:06.718Z,92.13
2023-05-09T23:37:36.380Z,92.20
2023-05-09T23:40:10.183Z,92.07
2023-05-09T23:42:39.826Z,92.13
2023-05-09T23:45:10.733Z,92.33
2023-05-09T23:47:40.510Z,92.41
2023-05-09T23:50:12.141Z,92.28
2023-05-09T23:52:42.841Z,92.30
2023-05-09T23:55:15.381Z,92.31
2023-05-09T23:57:45.069Z,92.18
